Time;durP1;ratioP1;P1;durP2;ratioP2;P2;SDS_P1;SDS_P2;PMS_P1;PMS_P2;Temp;Humidity;BMP_temperature;BMP_pressure;BME280_temperature;BME280_humidity;BME280_pressure;Samples;Min_cycle;Max_cycle;Signal;HPM_P1;HPM_P2
2022/05/01 00:00:57;;;;;;;;;;;9.70;73.10;;;;;;2082271;28;20007;-89
2022/05/01 00:01:58;;;;;;;;;;;9.70;73.10;;;;;;2074132;28;19917;-90
2022/05/01 00:02:58;;;;;;;;;;;9.80;73.20;;;;;;2082774;28;19909;-90
2022/05/01 00:03:59;;;;;;;;;;;9.80;73.00;;;;;;2088397;28;19923;-90
2022/05/01 00:05:01;;;;;;;;;;;9.80;73.00;;;;;;2098443;28;19916;-90
2022/05/01 00:06:05;;;;;;;;;;;9.80;72.90;;;;;;2082712;28;19952;-89
2022/05/01 00:07:06;;;;;;;;;;;9.80;73.10;;;;;;2088283;28;19971;-89
2022/05/01 00:08:07;;;;;;;;;;;9.80;72.90;;;;;;2091190;28;19983;-89
2022/05/01 00:09:08;;;;;;;;;;;9.80;72.90;;;;;;2090443;28;19917;-90
2022/05/01 00:10:09;;;;;;;;;;;9.80;73.00;;;;;;2091307;28;19976;-90
2022/05/01 00:11:09;;;;;;;;;;;9.80;73.10;;;;;;2090774;28;19939;-89
2022/05/01 00:12:10;;;;;;;;;;;9.80;73.20;;;;;;2082145;28;19909;-91
2022/05/01 00:13:11;;;;;;;;;;;9.80;73.00;;;;;;2098780;28;19913;-90
2022/05/01 00:14:12;;;;;;;;;;;9.80;72.90;;;;;;2089901;28;20016;-90
2022/05/01 00:15:12;;;;;;;;;;;9.80;72.90;;;;;;2090317;28;20091;-90
2022/05/01 00:16:13;;;;;;;;;;;9.80;73.20;;;;;;2090537;28;19913;-90
2022/05/01 00:17:13;;;;;;;;;;;9.80;73.20;;;;;;2089631;28;19920;-89
2022/05/01 00:18:14;;;;;;;;;;;9.80;73.20;;;;;;2082006;28;20508;-90
2022/05/01 00:19:15;;;;;;;;;;;9.80;73.30;;;;;;2082111;28;20381;-90
2022/05/01 00:20:16;;;;;;;;;;;9.70;73.10;;;;;;2107246;28;19911;-90
2022/05/01 00:21:16;;;;;;;;;;;9.80;73.20;;;;;;2097528;28;19970;-90
2022/05/01 00:22:17;;;;;;;;;;;9.80;73.10;;;;;;2083715;28;19910;-90
2022/05/01 00:23:19;;;;;;;;;;;9.80;73.10;;;;;;2076218;28;20104;-89
2022/05/01 00:24:19;;;;;;;;;;;9.80;73.10;;;;;;2087684;28;20428;-91
2022/05/01 00:25:20;;;;;;;;;;;9.80;73.00;;;;;;2078848;28;19913;-90
2022/05/01 00:26:20;;;;;;;;;;;9.80;73.00;;;;;;2090525;28;19917;-90
2022/05/01 00:27:21;;;;;;;;;;;9.80;73.60;;;;;;2082003;28;19914;-90
2022/05/01 00:28:21;;;;;;;;;;;9.80;73.00;;;;;;2081446;28;20307;-89
2022/05/01 00:29:24;;;;;;;;;;;9.80;73.00;;;;;;2090235;28;19975;-90
2022/05/01 00:30:27;;;;;;;;;;;9.80;73.00;;;;;;2097527;28;19917;-89
2022/05/01 00:31:28;;;;;;;;;;;9.80;73.10;;;;;;2090324;28;20135;-90
2022/05/01 00:36:25;;;;;;;;;;;9.80;73.00;;;;;;2089768;28;20106;-90
2022/05/01 00:36:27;;;;;;;;;;;9.80;73.00;;;;;;2089768;28;20019;-90
2022/05/01 00:37:28;;;;;;;;;;;9.80;73.00;;;;;;2092069;28;19912;-89
2022/05/01 00:38:30;;;;;;;;;;;9.80;73.00;;;;;;2089180;28;20384;-90
2022/05/01 00:39:30;;;;;;;;;;;9.80;73.10;;;;;;2079065;28;20347;-89
2022/05/01 00:40:31;;;;;;;;;;;9.80;73.20;;;;;;2080808;28;19933;-92
2022/05/01 00:41:33;;;;;;;;;;;9.80;73.20;;;;;;2081161;28;19955;-92
2022/05/01 00:42:33;;;;;;;;;;;9.80;73.20;;;;;;2095467;28;19917;-90
2022/05/01 00:43:52;;;;;;;;;;;9.80;73.20;;;;;;2092458;28;19913;-92
2022/05/01 00:44:53;;;;;;;;;;;9.80;73.20;;;;;;2090148;28;19909;-93
2022/05/01 00:45:53;;;;;;;;;;;9.80;73.20;;;;;;2098581;28;19958;-91
2022/05/01 00:46:54;;;;;;;;;;;9.70;73.10;;;;;;2090351;28;19982;-90
2022/05/01 00:47:55;;;;;;;;;;;9.70;73.10;;;;;;2081995;28;20062;-92
2022/05/01 00:48:55;;;;;;;;;;;9.70;73.20;;;;;;2081954;28;19909;-90
2022/05/01 00:49:56;;;;;;;;;;;9.70;73.30;;;;;;2090323;28;19909;-90
2022/05/01 00:50:56;;;;;;;;;;;9.70;73.30;;;;;;2090352;28;19909;-89
2022/05/01 00:52:04;;;;;;;;;;;9.70;73.40;;;;;;2097335;28;19916;-90
2022/05/01 00:53:05;;;;;;;;;;;9.70;73.40;;;;;;2098275;28;19940;-90
2022/05/01 00:54:07;;;;;;;;;;;9.70;73.40;;;;;;2082347;28;20264;-90
2022/05/01 00:55:08;;;;;;;;;;;9.70;73.60;;;;;;2090505;28;19909;-90
2022/05/01 00:56:08;;;;;;;;;;;9.70;73.50;;;;;;2089093;28;20052;-90
2022/05/01 00:57:10;;;;;;;;;;;9.60;73.50;;;;;;2088319;28;19959;-89
2022/05/01 00:58:10;;;;;;;;;;;9.70;73.50;;;;;;2091817;28;19968;-92
2022/05/01 00:59:11;;;;;;;;;;;9.60;73.50;;;;;;2090235;28;19955;-90
2022/05/01 01:00:12;;;;;;;;;;;9.60;73.60;;;;;;2090026;28;19916;-89
2022/05/01 01:01:13;;;;;;;;;;;9.60;73.80;;;;;;2098444;28;20454;-90
2022/05/01 01:02:14;;;;;;;;;;;9.60;73.90;;;;;;2080820;28;19917;-89
2022/05/01 01:03:14;;;;;;;;;;;9.60;73.90;;;;;;2091285;28;19969;-90
2022/05/01 01:04:15;;;;;;;;;;;9.60;73.80;;;;;;2091298;28;19924;-90
2022/05/01 01:05:16;;;;;;;;;;;9.50;73.70;;;;;;2100182;28;20349;-90
2022/05/01 01:06:16;;;;;;;;;;;9.50;73.80;;;;;;2093891;28;19912;-89
2022/05/01 01:07:17;;;;;;;;;;;9.50;73.80;;;;;;2100395;28;19912;-90
2022/05/01 01:08:18;;;;;;;;;;;9.60;73.80;;;;;;2092324;28;19920;-90
2022/05/01 01:09:19;;;;;;;;;;;9.60;73.70;;;;;;2092192;28;19919;-90
2022/05/01 01:10:20;;;;;;;;;;;9.60;73.70;;;;;;2082354;28;19925;-90
2022/05/01 01:11:20;;;;;;;;;;;9.60;73.70;;;;;;2075494;28;19914;-90
2022/05/01 01:13:46;;;;;;;;;;;9.60;73.80;;;;;;2087184;28;20343;-90
2022/05/01 01:14:47;;;;;;;;;;;9.60;73.70;;;;;;2101556;28;19908;-90
2022/05/01 01:15:47;;;;;;;;;;;9.60;73.60;;;;;;2093788;28;20284;-90
2022/05/01 01:16:49;;;;;;;;;;;9.60;73.60;;;;;;2067932;28;19914;-90
2022/05/01 01:17:54;;;;;;;;;;;9.60;73.60;;;;;;2075566;28;19929;-89
2022/05/01 01:18:55;;;;;;;;;;;9.60;73.50;;;;;;2076952;28;19989;-90
2022/05/01 01:19:56;;;;;;;;;;;9.60;73.50;;;;;;2084358;28;20358;-90
2022/05/01 01:20:56;;;;;;;;;;;9.60;73.50;;;;;;2092418;28;19928;-90
2022/05/01 01:21:57;;;;;;;;;;;9.60;73.50;;;;;;2085132;28;20467;-91
2022/05/01 01:22:59;;;;;;;;;;;9.60;73.50;;;;;;2084340;28;20318;-92
2022/05/01 01:24:01;;;;;;;;;;;9.60;73.60;;;;;;2096921;28;19913;-90
2022/05/01 01:25:02;;;;;;;;;;;9.60;73.50;;;;;;2095657;28;19908;-91
2022/05/01 01:26:04;;;;;;;;;;;9.60;73.50;;;;;;2081770;28;20358;-91
2022/05/01 01:27:05;;;;;;;;;;;9.60;73.50;;;;;;2085878;28;19920;-90
2022/05/01 01:28:07;;;;;;;;;;;9.60;73.50;;;;;;2093113;28;19955;-90
2022/05/01 01:31:55;;;;;;;;;;;9.70;73.50;;;;;;2092253;28;20096;-91
2022/05/01 01:32:55;;;;;;;;;;;9.70;73.50;;;;;;2083040;28;19914;-90
2022/05/01 01:34:03;;;;;;;;;;;9.70;73.50;;;;;;2082199;28;19916;-90
2022/05/01 01:35:05;;;;;;;;;;;9.70;73.50;;;;;;2088543;28;20368;-90
2022/05/01 01:36:06;;;;;;;;;;;9.70;73.50;;;;;;2100242;28;20370;-91
2022/05/01 01:37:07;;;;;;;;;;;9.70;73.50;;;;;;2093289;28;19913;-90
2022/05/01 01:38:07;;;;;;;;;;;9.70;73.50;;;;;;2067069;28;19945;-90
2022/05/01 01:39:08;;;;;;;;;;;9.70;73.50;;;;;;2075881;28;19973;-90
2022/05/01 01:40:09;;;;;;;;;;;9.70;73.50;;;;;;2091489;28;20304;-90
2022/05/01 01:41:11;;;;;;;;;;;9.70;73.40;;;;;;2091204;28;19920;-91
2022/05/01 01:42:13;;;;;;;;;;;9.70;73.40;;;;;;2099921;28;19974;-91
2022/05/01 01:43:17;;;;;;;;;;;9.70;73.40;;;;;;2089286;28;19963;-91
2022/05/01 01:44:18;;;;;;;;;;;9.70;73.40;;;;;;2088079;28;19952;-90
2022/05/01 01:45:19;;;;;;;;;;;9.70;73.40;;;;;;2091721;28;19921;-90
2022/05/01 01:46:20;;;;;;;;;;;9.70;73.40;;;;;;2091589;28;19912;-91
2022/05/01 01:47:20;;;;;;;;;;;9.70;74.10;;;;;;2084041;28;20346;-90
2022/05/01 01:48:22;;;;;;;;;;;9.70;73.50;;;;;;2082271;28;20305;-91
2022/05/01 01:49:22;;;;;;;;;;;9.70;73.50;;;;;;2082031;28;19924;-91
2022/05/01 01:50:24;;;;;;;;;;;9.70;73.50;;;;;;2083473;28;20357;-91
2022/05/01 01:51:24;;;;;;;;;;;9.70;73.50;;;;;;2082460;28;19924;-91
2022/05/01 01:52:25;;;;;;;;;;;9.70;73.50;;;;;;2082516;28;20308;-91
2022/05/01 01:53:27;;;;;;;;;;;9.70;73.50;;;;;;2082657;28;19917;-90
2022/05/01 01:54:28;;;;;;;;;;;9.70;73.50;;;;;;2081171;28;19916;-91
2022/05/01 01:55:31;;;;;;;;;;;9.70;73.50;;;;;;2083364;28;20392;-90
2022/05/01 01:56:31;;;;;;;;;;;9.70;73.50;;;;;;2089711;28;19995;-91
2022/05/01 01:57:32;;;;;;;;;;;9.70;73.50;;;;;;2082670;28;20317;-90
2022/05/01 01:58:32;;;;;;;;;;;9.70;74.10;;;;;;2091578;28;19942;-91
2022/05/01 01:59:33;;;;;;;;;;;9.70;73.50;;;;;;2090233;28;19917;-91
2022/05/01 02:00:34;;;;;;;;;;;9.70;73.50;;;;;;2082610;28;19929;-90
2022/05/01 02:01:34;;;;;;;;;;;9.70;73.50;;;;;;2092817;28;19913;-91
2022/05/01 02:02:35;;;;;;;;;;;9.70;73.60;;;;;;2090726;28;20082;-91
2022/05/01 02:03:36;;;;;;;;;;;9.70;73.60;;;;;;2090911;28;19966;-91
2022/05/01 02:04:37;;;;;;;;;;;9.70;73.60;;;;;;2079783;28;19944;-90
2022/05/01 02:05:37;;;;;;;;;;;9.70;73.70;;;;;;2092022;28;20106;-90
2022/05/01 02:06:38;;;;;;;;;;;9.70;73.70;;;;;;2098061;28;19999;-90
2022/05/01 02:07:40;;;;;;;;;;;9.70;73.70;;;;;;2083454;28;19909;-90
2022/05/01 02:08:42;;;;;;;;;;;9.70;73.80;;;;;;2083172;28;19909;-90
2022/05/01 02:09:42;;;;;;;;;;;9.70;73.70;;;;;;2090325;28;19916;-91
2022/05/01 02:10:44;;;;;;;;;;;9.70;73.80;;;;;;2099548;28;20372;-91
2022/05/01 02:11:44;;;;;;;;;;;9.70;73.80;;;;;;2075974;28;20401;-91
2022/05/01 02:12:45;;;;;;;;;;;9.70;73.80;;;;;;2091366;28;19955;-91
2022/05/01 02:13:45;;;;;;;;;;;9.70;73.80;;;;;;2091059;28;20016;-89
2022/05/01 02:14:46;;;;;;;;;;;9.70;73.80;;;;;;2075175;28;20024;-90
2022/05/01 02:15:47;;;;;;;;;;;9.60;73.70;;;;;;2098255;28;20234;-90
2022/05/01 02:16:48;;;;;;;;;;;9.70;73.80;;;;;;2090214;28;19948;-90
2022/05/01 02:17:49;;;;;;;;;;;9.60;73.70;;;;;;2075078;28;20369;-90
2022/05/01 02:18:50;;;;;;;;;;;9.70;73.80;;;;;;2074983;28;19913;-91
2022/05/01 02:19:51;;;;;;;;;;;9.60;73.70;;;;;;2075020;28;20321;-90
2022/05/01 02:22:10;;;;;;;;;;;9.70;73.80;;;;;;2107885;28;19913;-91
2022/05/01 02:23:11;;;;;;;;;;;9.70;73.80;;;;;;2089821;28;20444;-90
2022/05/01 02:24:15;;;;;;;;;;;9.60;73.80;;;;;;2086430;28;19909;-90
2022/05/01 02:25:15;;;;;;;;;;;9.60;73.80;;;;;;2094944;28;19995;-90
2022/05/01 02:26:16;;;;;;;;;;;9.60;73.90;;;;;;2094352;28;20015;-90
2022/05/01 02:27:16;;;;;;;;;;;9.60;73.80;;;;;;2085707;28;20065;-90
2022/05/01 02:28:17;;;;;;;;;;;9.60;73.90;;;;;;2092876;28;19923;-90
2022/05/01 02:29:18;;;;;;;;;;;9.60;73.90;;;;;;2091101;28;19917;-90
2022/05/01 02:30:18;;;;;;;;;;;9.60;74.50;;;;;;2082891;28;19917;-90
2022/05/01 02:31:19;;;;;;;;;;;9.60;73.90;;;;;;2083103;28;19920;-90
2022/05/01 02:32:20;;;;;;;;;;;9.50;73.80;;;;;;2077529;28;19917;-90
2022/05/01 02:33:20;;;;;;;;;;;9.50;73.90;;;;;;2082962;28;19910;-91
2022/05/01 02:34:22;;;;;;;;;;;9.60;73.90;;;;;;2091257;28;20006;-90
2022/05/01 02:35:23;;;;;;;;;;;9.60;74.00;;;;;;2083114;28;20439;-90
2022/05/01 02:36:23;;;;;;;;;;;9.60;74.00;;;;;;2081809;28;19979;-91
2022/05/01 02:37:24;;;;;;;;;;;9.50;74.00;;;;;;2090924;28;20405;-90
2022/05/01 02:38:24;;;;;;;;;;;9.50;74.00;;;;;;2075359;28;20392;-90
2022/05/01 02:39:25;;;;;;;;;;;9.50;74.00;;;;;;2082405;28;19960;-90
2022/05/01 02:40:25;;;;;;;;;;;9.50;74.10;;;;;;2099268;28;20015;-90
2022/05/01 02:41:27;;;;;;;;;;;9.50;74.10;;;;;;2106898;28;19935;-90
2022/05/01 02:42:27;;;;;;;;;;;9.50;74.10;;;;;;2099444;28;19958;-91
2022/05/01 02:43:28;;;;;;;;;;;9.50;74.10;;;;;;2091328;28;19982;-90
2022/05/01 02:44:29;;;;;;;;;;;9.50;74.10;;;;;;2083605;28;19928;-90
2022/05/01 02:45:29;;;;;;;;;;;9.50;74.10;;;;;;2098809;28;19917;-91
2022/05/01 02:46:31;;;;;;;;;;;9.50;74.10;;;;;;2090150;28;19964;-91
2022/05/01 02:47:33;;;;;;;;;;;9.50;74.10;;;;;;2090164;28;19967;-90
2022/05/01 02:48:34;;;;;;;;;;;9.50;74.10;;;;;;2088940;28;19963;-90
2022/05/01 02:49:36;;;;;;;;;;;9.50;74.10;;;;;;2091402;28;20485;-91
2022/05/01 02:50:37;;;;;;;;;;;9.50;74.20;;;;;;2090912;28;19956;-91
2022/05/01 02:51:37;;;;;;;;;;;9.50;74.90;;;;;;2082598;28;20396;-91
2022/05/01 02:52:38;;;;;;;;;;;9.50;74.20;;;;;;2090916;28;20353;-90
2022/05/01 02:53:39;;;;;;;;;;;9.50;74.20;;;;;;2097814;28;19932;-91
2022/05/01 02:54:39;;;;;;;;;;;9.50;74.20;;;;;;2090779;28;19936;-91
2022/05/01 02:55:40;;;;;;;;;;;9.50;74.10;;;;;;2081867;28;19918;-90
2022/05/01 02:56:40;;;;;;;;;;;9.50;74.10;;;;;;2089051;28;20013;-91
2022/05/01 02:57:41;;;;;;;;;;;9.50;74.10;;;;;;2104659;28;19946;-90
2022/05/01 02:58:41;;;;;;;;;;;9.50;74.10;;;;;;2097971;28;19916;-90
2022/05/01 02:59:42;;;;;;;;;;;9.50;74.20;;;;;;2074984;28;19913;-89
2022/05/01 03:00:43;;;;;;;;;;;9.50;74.30;;;;;;2080959;28;19925;-91
2022/05/01 03:01:44;;;;;;;;;;;9.50;74.30;;;;;;2099340;28;20050;-90
2022/05/01 03:02:45;;;;;;;;;;;9.50;74.30;;;;;;2099352;28;19956;-91
2022/05/01 03:03:46;;;;;;;;;;;9.40;74.30;;;;;;2106705;28;19912;-90
2022/05/01 03:04:46;;;;;;;;;;;9.40;74.30;;;;;;2099609;28;20407;-90
2022/05/01 03:05:47;;;;;;;;;;;9.40;74.40;;;;;;2099183;28;19917;-90
2022/05/01 03:06:48;;;;;;;;;;;9.40;74.40;;;;;;2074672;28;19928;-90
2022/05/01 03:07:48;;;;;;;;;;;9.40;74.40;;;;;;2075563;28;20012;-90
2022/05/01 03:08:49;;;;;;;;;;;9.40;74.50;;;;;;2074296;28;19924;-90
2022/05/01 03:09:49;;;;;;;;;;;9.40;74.50;;;;;;2090578;28;19995;-91
2022/05/01 03:10:50;;;;;;;;;;;9.40;74.50;;;;;;2090314;28;19986;-90
2022/05/01 03:11:50;;;;;;;;;;;9.40;74.50;;;;;;2079520;28;19995;-90
2022/05/01 03:12:51;;;;;;;;;;;9.40;74.50;;;;;;2088942;28;19917;-90
2022/05/01 03:13:52;;;;;;;;;;;9.40;74.50;;;;;;2083006;28;19989;-90
2022/05/01 03:14:52;;;;;;;;;;;9.40;74.50;;;;;;2090844;28;20012;-91
2022/05/01 03:15:53;;;;;;;;;;;9.40;74.60;;;;;;2090622;28;20276;-90
2022/05/01 03:16:53;;;;;;;;;;;9.40;74.50;;;;;;2073609;28;20290;-90
2022/05/01 03:23:10;;;;;;;;;;;9.40;74.50;;;;;;2090892;28;20352;-91
2022/05/01 03:24:11;;;;;;;;;;;9.40;74.50;;;;;;2081690;28;19920;-90
2022/05/01 03:25:11;;;;;;;;;;;9.40;74.40;;;;;;2082110;28;19920;-91
2022/05/01 03:26:12;;;;;;;;;;;9.40;74.50;;;;;;2099117;28;19939;-90
2022/05/01 03:27:13;;;;;;;;;;;9.30;74.50;;;;;;2086052;28;19917;-90
2022/05/01 03:28:13;;;;;;;;;;;9.30;74.50;;;;;;2090028;28;20661;-90
2022/05/01 03:29:15;;;;;;;;;;;9.30;74.50;;;;;;2079664;28;19921;-90
2022/05/01 03:30:15;;;;;;;;;;;9.30;74.50;;;;;;2081401;28;20360;-91
2022/05/01 03:31:16;;;;;;;;;;;9.30;74.50;;;;;;2082399;28;20212;-90
2022/05/01 03:32:17;;;;;;;;;;;9.30;74.50;;;;;;2081897;28;19909;-90
2022/05/01 03:33:21;;;;;;;;;;;9.30;74.50;;;;;;2090132;28;20289;-91
2022/05/01 03:34:23;;;;;;;;;;;9.30;74.50;;;;;;2097527;28;19922;-90
2022/05/01 03:35:24;;;;;;;;;;;9.30;74.50;;;;;;2097286;28;19938;-90
2022/05/01 03:36:26;;;;;;;;;;;9.30;74.50;;;;;;2089145;28;19971;-90
2022/05/01 03:37:28;;;;;;;;;;;9.30;74.50;;;;;;2090796;28;19964;-90
2022/05/01 03:38:28;;;;;;;;;;;9.30;74.50;;;;;;2089379;28;19997;-90
2022/05/01 03:39:29;;;;;;;;;;;9.30;74.50;;;;;;2072327;28;19924;-91
2022/05/01 03:40:29;;;;;;;;;;;9.30;74.50;;;;;;2081263;28;19924;-91
2022/05/01 03:41:30;;;;;;;;;;;9.30;74.50;;;;;;2082450;28;20029;-90
2022/05/01 03:42:31;;;;;;;;;;;9.30;74.50;;;;;;2089890;28;19924;-90
2022/05/01 03:43:33;;;;;;;;;;;9.30;74.50;;;;;;2084315;28;19924;-90
2022/05/01 03:44:33;;;;;;;;;;;9.30;74.60;;;;;;2081549;28;19917;-90
2022/05/01 03:45:34;;;;;;;;;;;9.30;74.60;;;;;;2093349;28;20316;-90
2022/05/01 03:46:41;;;;;;;;;;;9.30;74.70;;;;;;2080924;28;19925;-91
2022/05/01 03:47:42;;;;;;;;;;;9.30;74.70;;;;;;2075776;28;19923;-90
2022/05/01 03:48:42;;;;;;;;;;;9.30;74.80;;;;;;2089147;28;19916;-90
2022/05/01 03:49:43;;;;;;;;;;;9.30;74.80;;;;;;2090344;28;19979;-90
2022/05/01 03:50:43;;;;;;;;;;;9.30;74.80;;;;;;2096456;28;19917;-91
2022/05/01 03:51:44;;;;;;;;;;;9.20;74.80;;;;;;2105334;28;19904;-90
2022/05/01 03:52:45;;;;;;;;;;;9.20;74.80;;;;;;2088466;28;19970;-91
2022/05/01 03:53:46;;;;;;;;;;;9.20;74.80;;;;;;2086663;28;19918;-90
2022/05/01 03:54:46;;;;;;;;;;;9.20;74.90;;;;;;2101416;28;20023;-89
2022/05/01 03:55:47;;;;;;;;;;;9.20;74.90;;;;;;2088030;28;19928;-90
2022/05/01 03:56:48;;;;;;;;;;;9.20;75.00;;;;;;2088238;28;19925;-89
2022/05/01 03:57:48;;;;;;;;;;;9.20;75.00;;;;;;2089071;28;19916;-90
2022/05/01 03:58:49;;;;;;;;;;;9.20;75.00;;;;;;2106446;28;19917;-89
2022/05/01 03:59:49;;;;;;;;;;;9.10;75.00;;;;;;2095440;28;19924;-90
2022/05/01 04:00:50;;;;;;;;;;;9.10;75.10;;;;;;2083535;28;19932;-90
2022/05/01 04:01:51;;;;;;;;;;;9.10;75.10;;;;;;2083146;28;20294;-91
2022/05/01 04:02:52;;;;;;;;;;;9.10;75.20;;;;;;2088599;28;19979;-90
2022/05/01 04:03:52;;;;;;;;;;;9.10;75.30;;;;;;2091817;28;20388;-90
2022/05/01 04:04:53;;;;;;;;;;;9.10;75.30;;;;;;2082362;28;19919;-90
2022/05/01 04:05:54;;;;;;;;;;;9.10;75.30;;;;;;2082865;28;19980;-90
2022/05/01 04:06:57;;;;;;;;;;;9.10;75.30;;;;;;2074340;28;19984;-91
2022/05/01 04:07:57;;;;;;;;;;;9.10;75.30;;;;;;2099644;28;19916;-91
2022/05/01 04:08:58;;;;;;;;;;;9.10;75.20;;;;;;2089198;28;19956;-91
2022/05/01 04:09:58;;;;;;;;;;;9.10;75.20;;;;;;2073144;28;19960;-90
2022/05/01 04:11:02;;;;;;;;;;;9.10;75.20;;;;;;2089227;28;20019;-90
2022/05/01 04:12:03;;;;;;;;;;;9.10;75.20;;;;;;2098608;28;20380;-90
2022/05/01 04:13:04;;;;;;;;;;;9.10;75.20;;;;;;2098028;28;20368;-91
2022/05/01 04:14:06;;;;;;;;;;;9.10;75.10;;;;;;2099112;28;19959;-91
2022/05/01 04:15:07;;;;;;;;;;;9.10;75.10;;;;;;2082522;28;19915;-90
2022/05/01 04:16:08;;;;;;;;;;;9.10;75.10;;;;;;2090521;28;20381;-91
2022/05/01 04:17:08;;;;;;;;;;;9.10;75.10;;;;;;2082249;28;20012;-90
2022/05/01 04:18:09;;;;;;;;;;;9.10;75.10;;;;;;2065826;28;19914;-90
2022/05/01 04:19:11;;;;;;;;;;;9.10;75.00;;;;;;2082054;28;19909;-90
2022/05/01 04:20:13;;;;;;;;;;;9.10;75.00;;;;;;2091719;28;20510;-90
2022/05/01 04:21:14;;;;;;;;;;;9.10;75.00;;;;;;2092243;28;19996;-90
2022/05/01 04:22:14;;;;;;;;;;;9.10;75.00;;;;;;2098086;28;19916;-90
2022/05/01 04:23:15;;;;;;;;;;;9.10;75.10;;;;;;2081646;28;19921;-89
2022/05/01 04:24:16;;;;;;;;;;;9.10;75.20;;;;;;2065858;28;20307;-90
2022/05/01 04:25:17;;;;;;;;;;;9.10;75.20;;;;;;2080842;28;19913;-90
2022/05/01 04:26:18;;;;;;;;;;;9.10;76.00;;;;;;2098690;28;20288;-90
2022/05/01 04:27:19;;;;;;;;;;;9.00;75.40;;;;;;2090422;28;19952;-91
2022/05/01 04:28:20;;;;;;;;;;;9.00;75.40;;;;;;2090511;28;19916;-91
2022/05/01 04:29:36;;;;;;;;;;;9.00;75.40;;;;;;2090307;28;20407;-90
2022/05/01 04:30:37;;;;;;;;;;;8.90;75.50;;;;;;2075510;28;19917;-90
2022/05/01 04:31:37;;;;;;;;;;;9.00;75.50;;;;;;2081770;28;20114;-90
2022/05/01 04:32:55;;;;;;;;;;;8.90;75.50;;;;;;2078950;28;19913;-91
2022/05/01 04:33:56;;;;;;;;;;;8.90;75.50;;;;;;2082155;28;19940;-90
2022/05/01 04:34:56;;;;;;;;;;;8.90;75.60;;;;;;2081800;28;19943;-90
2022/05/01 04:35:57;;;;;;;;;;;8.90;75.60;;;;;;2090234;28;19916;-90
2022/05/01 04:36:58;;;;;;;;;;;8.90;75.60;;;;;;2082441;28;19913;-90
2022/05/01 04:38:01;;;;;;;;;;;8.90;75.60;;;;;;2074217;28;19916;-90
2022/05/01 04:39:01;;;;;;;;;;;8.90;76.20;;;;;;2098685;28;19915;-90
2022/05/01 04:40:02;;;;;;;;;;;8.90;75.60;;;;;;2090225;28;19913;-90
2022/05/01 04:41:04;;;;;;;;;;;8.90;75.70;;;;;;2082903;28;20015;-91
2022/05/01 04:42:05;;;;;;;;;;;8.90;75.70;;;;;;2091753;28;21250;-90
2022/05/01 04:43:09;;;;;;;;;;;8.90;75.90;;;;;;2088960;28;19927;-90
2022/05/01 04:44:10;;;;;;;;;;;8.90;75.80;;;;;;2090136;28;20323;-90
2022/05/01 04:45:11;;;;;;;;;;;8.90;75.90;;;;;;2098220;28;19989;-90
2022/05/01 04:46:11;;;;;;;;;;;8.90;75.90;;;;;;2098628;28;19908;-90
2022/05/01 04:47:12;;;;;;;;;;;8.90;75.90;;;;;;2081914;28;19969;-90
2022/05/01 04:48:13;;;;;;;;;;;8.90;75.90;;;;;;2082204;28;19960;-90
2022/05/01 04:49:13;;;;;;;;;;;8.90;75.90;;;;;;2090187;28;20302;-90
2022/05/01 04:50:16;;;;;;;;;;;8.90;75.80;;;;;;2080855;28;19924;-91
2022/05/01 04:51:17;;;;;;;;;;;8.90;75.90;;;;;;2082276;28;19913;-90
2022/05/01 04:52:18;;;;;;;;;;;8.90;75.80;;;;;;2081863;28;19955;-90
2022/05/01 04:53:20;;;;;;;;;;;8.90;75.80;;;;;;2073060;28;20011;-90
2022/05/01 04:54:20;;;;;;;;;;;8.90;75.80;;;;;;2087652;28;19936;-90
2022/05/01 04:55:21;;;;;;;;;;;8.90;75.90;;;;;;2089523;28;19959;-90
2022/05/01 04:57:22;;;;;;;;;;;8.90;76.00;;;;;;2089490;28;19920;-90
2022/05/01 04:57:51;;;;;;;;;;;8.90;76.00;;;;;;2074376;28;20273;-90
2022/05/01 04:58:52;;;;;;;;;;;8.90;75.90;;;;;;2097448;28;19966;-90
2022/05/01 04:59:52;;;;;;;;;;;8.90;75.80;;;;;;2089731;28;19943;-90
2022/05/01 05:00:53;;;;;;;;;;;8.90;75.90;;;;;;2095885;28;19924;-90
2022/05/01 05:01:54;;;;;;;;;;;8.90;76.00;;;;;;2098687;28;19935;-90
2022/05/01 05:02:56;;;;;;;;;;;8.90;75.90;;;;;;2081268;28;19981;-90
2022/05/01 05:03:58;;;;;;;;;;;8.90;75.90;;;;;;2079335;28;19925;-90
2022/05/01 05:04:59;;;;;;;;;;;8.90;75.80;;;;;;2080962;28;19979;-91
2022/05/01 05:06:01;;;;;;;;;;;8.90;75.90;;;;;;2081275;28;20004;-90
2022/05/01 05:07:01;;;;;;;;;;;9.00;75.90;;;;;;2089448;28;19924;-91
2022/05/01 05:10:40;;;;;;;;;;;9.00;75.90;;;;;;2083631;28;19917;-90
2022/05/01 05:11:41;;;;;;;;;;;9.00;75.80;;;;;;2090162;28;19917;-90
2022/05/01 05:12:42;;;;;;;;;;;9.00;75.80;;;;;;2089994;28;19909;-90
2022/05/01 05:13:43;;;;;;;;;;;9.00;75.80;;;;;;2080679;28;19944;-90
2022/05/01 05:14:43;;;;;;;;;;;9.00;75.70;;;;;;2078983;28;19924;-90
2022/05/01 05:15:47;;;;;;;;;;;9.00;75.70;;;;;;2081721;28;19928;-91
2022/05/01 05:16:48;;;;;;;;;;;9.10;75.70;;;;;;2096581;28;19913;-90
2022/05/01 05:17:48;;;;;;;;;;;9.10;75.70;;;;;;2097397;28;19921;-90
2022/05/01 05:18:49;;;;;;;;;;;9.10;75.60;;;;;;2089531;28;19916;-90
2022/05/01 05:19:50;;;;;;;;;;;9.10;75.60;;;;;;2082397;28;19996;-91
2022/05/01 05:20:50;;;;;;;;;;;9.10;75.60;;;;;;2075958;28;20436;-90
2022/05/01 05:21:51;;;;;;;;;;;9.10;75.50;;;;;;2083598;28;20013;-90
2022/05/01 05:22:53;;;;;;;;;;;9.10;75.70;;;;;;2091099;28;19909;-90
2022/05/01 05:23:54;;;;;;;;;;;9.20;75.70;;;;;;2098803;28;19916;-90
2022/05/01 05:24:55;;;;;;;;;;;9.20;75.60;;;;;;2089247;28;20347;-90
2022/05/01 05:25:55;;;;;;;;;;;9.20;75.60;;;;;;2089605;28;19913;-90
2022/05/01 05:26:56;;;;;;;;;;;9.20;75.60;;;;;;2097842;28;19919;-90
2022/05/01 05:27:57;;;;;;;;;;;9.20;75.50;;;;;;2089665;28;19959;-90
2022/05/01 05:28:58;;;;;;;;;;;9.20;75.50;;;;;;2089423;28;20456;-90
2022/05/01 05:29:59;;;;;;;;;;;9.30;75.60;;;;;;2082430;28;19985;-90
2022/05/01 05:30:59;;;;;;;;;;;9.20;75.50;;;;;;2072829;28;19921;-90
2022/05/01 05:32:00;;;;;;;;;;;9.20;75.50;;;;;;2081662;28;20028;-90
2022/05/01 05:33:02;;;;;;;;;;;9.30;75.60;;;;;;2073137;28;19965;-90
2022/05/01 05:34:03;;;;;;;;;;;9.30;75.50;;;;;;2089027;28;19913;-90
2022/05/01 05:35:04;;;;;;;;;;;9.30;75.50;;;;;;2096302;28;20007;-90
2022/05/01 05:36:05;;;;;;;;;;;9.30;75.50;;;;;;2095758;28;20459;-90
2022/05/01 05:37:05;;;;;;;;;;;9.30;75.40;;;;;;2089062;28;20023;-90
2022/05/01 05:38:06;;;;;;;;;;;9.40;75.50;;;;;;2089983;28;19966;-90
2022/05/01 05:39:07;;;;;;;;;;;9.40;75.40;;;;;;2097297;28;19909;-90
2022/05/01 05:40:08;;;;;;;;;;;9.40;75.60;;;;;;2089840;28;20003;-90
2022/05/01 05:41:08;;;;;;;;;;;9.40;75.50;;;;;;2072705;28;20012;-90
2022/05/01 05:42:09;;;;;;;;;;;9.40;75.50;;;;;;2081749;28;19913;-90
2022/05/01 05:43:10;;;;;;;;;;;9.40;75.50;;;;;;2092704;28;19960;-90
2022/05/01 05:44:11;;;;;;;;;;;9.40;75.50;;;;;;2106664;28;19908;-90
2022/05/01 05:45:12;;;;;;;;;;;9.40;75.50;;;;;;2084344;28;20517;-91
2022/05/01 05:46:12;;;;;;;;;;;9.40;75.40;;;;;;2084642;28;19917;-90
2022/05/01 05:47:13;;;;;;;;;;;9.40;75.50;;;;;;2089518;28;19921;-90
2022/05/01 05:48:13;;;;;;;;;;;9.40;75.40;;;;;;2082271;28;19921;-90
2022/05/01 05:49:14;;;;;;;;;;;9.40;75.30;;;;;;2090963;28;20348;-90
2022/05/01 05:50:15;;;;;;;;;;;9.50;75.40;;;;;;2091499;28;20412;-90
2022/05/01 05:51:15;;;;;;;;;;;9.40;75.30;;;;;;2073853;28;20001;-90
2022/05/01 05:52:16;;;;;;;;;;;9.50;75.30;;;;;;2082713;28;19947;-90
2022/05/01 05:53:17;;;;;;;;;;;9.50;75.30;;;;;;2088002;28;19932;-91
2022/05/01 05:54:17;;;;;;;;;;;9.60;75.20;;;;;;2093803;28;19912;-90
2022/05/01 05:55:18;;;;;;;;;;;9.60;75.20;;;;;;2100400;28;19924;-90
2022/05/01 05:56:19;;;;;;;;;;;9.60;75.20;;;;;;2095061;28;19946;-90
2022/05/01 05:57:20;;;;;;;;;;;9.60;75.20;;;;;;2095137;28;20506;-90
2022/05/01 05:58:20;;;;;;;;;;;9.60;75.10;;;;;;2099789;28;19967;-90
2022/05/01 05:59:21;;;;;;;;;;;9.70;75.10;;;;;;2100293;28;19913;-90
2022/05/01 06:00:21;;;;;;;;;;;9.70;75.10;;;;;;2085974;28;19995;-90
2022/05/01 06:01:22;;;;;;;;;;;9.80;75.10;;;;;;2095971;28;20436;-90
2022/05/01 06:02:22;;;;;;;;;;;9.80;75.00;;;;;;2091150;28;20010;-90
2022/05/01 06:03:23;;;;;;;;;;;9.80;74.90;;;;;;2100061;28;19942;-90
2022/05/01 06:04:24;;;;;;;;;;;9.90;75.50;;;;;;2085260;28;19917;-91
2022/05/01 06:05:24;;;;;;;;;;;9.90;74.80;;;;;;2065964;28;20013;-90
2022/05/01 06:06:25;;;;;;;;;;;10.00;74.80;;;;;;2084351;28;19917;-90
2022/05/01 06:07:25;;;;;;;;;;;10.00;74.60;;;;;;2075287;28;19989;-90
2022/05/01 06:08:26;;;;;;;;;;;10.00;74.60;;;;;;2074273;28;19924;-90
2022/05/01 06:09:26;;;;;;;;;;;10.10;74.60;;;;;;2074849;28;19917;-90
2022/05/01 06:10:27;;;;;;;;;;;10.10;74.50;;;;;;2074132;28;19932;-91
2022/05/01 06:11:28;;;;;;;;;;;10.10;74.50;;;;;;2083284;28;20003;-91
2022/05/01 06:12:28;;;;;;;;;;;10.10;74.50;;;;;;2076198;28;19909;-90
2022/05/01 06:13:29;;;;;;;;;;;10.10;74.50;;;;;;2097014;28;19962;-91
2022/05/01 06:14:30;;;;;;;;;;;10.10;74.50;;;;;;2099328;28;19909;-91
2022/05/01 06:15:31;;;;;;;;;;;10.20;74.50;;;;;;2091452;28;20003;-91
2022/05/01 06:16:32;;;;;;;;;;;10.20;74.60;;;;;;2091445;28;20454;-91
2022/05/01 06:17:33;;;;;;;;;;;10.20;74.50;;;;;;2080826;28;19960;-91